sensor_id;sensor_type;location;lat;lon;timestamp;pressure;altitude;pressure_sealevel;temperature;humidity
19114;BME280;9689;51.052;13.772;2024-02-21T00:00:56;100916.63;;;8.33;70.47
19114;BME280;9689;51.052;13.772;2024-02-21T00:05:58;100917.50;;;8.31;70.79
19114;BME280;9689;51.052;13.772;2024-02-21T00:10:59;100902.81;;;8.27;70.79
19114;BME280;9689;51.052;13.772;2024-02-21T00:16:01;100905.41;;;8.34;70.57
19114;BME280;9689;51.052;13.772;2024-02-21T00:21:03;100898.47;;;8.24;70.93
19114;BME280;9689;51.052;13.772;2024-02-21T00:26:04;100890.69;;;8.22;70.67
19114;BME280;9689;51.052;13.772;2024-02-21T00:31:05;100895.88;;;8.30;70.27
19114;BME280;9689;51.052;13.772;2024-02-21T00:36:07;100883.78;;;8.38;70.49
19114;BME280;9689;51.052;13.772;2024-02-21T00:41:08;100882.91;;;8.42;69.50
19114;BME280;9689;51.052;13.772;2024-02-21T00:46:09;100882.06;;;8.39;70.18
19114;BME280;9689;51.052;13.772;2024-02-21T00:51:11;100879.44;;;8.42;69.79
19114;BME280;9689;51.052;13.772;2024-02-21T00:56:11;100869.03;;;8.42;69.49
19114;BME280;9689;51.052;13.772;2024-02-21T01:01:12;100850.88;;;8.46;69.00
19114;BME280;9689;51.052;13.772;2024-02-21T01:06:15;100861.25;;;8.33;69.80
19114;BME280;9689;51.052;13.772;2024-02-21T01:11:16;100851.75;;;8.38;69.67
19114;BME280;9689;51.052;13.772;2024-02-21T01:16:17;100841.38;;;8.36;69.71
19114;BME280;9689;51.052;13.772;2024-02-21T01:21:19;100831.84;;;8.38;68.95
19114;BME280;9689;51.052;13.772;2024-02-21T01:26:19;100830.09;;;8.42;69.31
19114;BME280;9689;51.052;13.772;2024-02-21T01:31:20;100811.03;;;8.34;69.83
19114;BME280;9689;51.052;13.772;2024-02-21T01:36:22;100804.16;;;8.28;69.53
19114;BME280;9689;51.052;13.772;2024-02-21T01:41:23;100788.56;;;8.27;69.44
19114;BME280;9689;51.052;13.772;2024-02-21T01:46:24;100789.41;;;8.30;69.75
19114;BME280;9689;51.052;13.772;2024-02-21T01:51:28;100775.56;;;8.31;70.00
19114;BME280;9689;51.052;13.772;2024-02-21T01:56:29;100771.25;;;8.30;69.80
19114;BME280;9689;51.052;13.772;2024-02-21T02:01:30;100767.81;;;8.19;70.43
19114;BME280;9689;51.052;13.772;2024-02-21T02:06:32;100765.22;;;8.20;69.39
19114;BME280;9689;51.052;13.772;2024-02-21T02:11:33;100765.22;;;8.27;69.46
19114;BME280;9689;51.052;13.772;2024-02-21T02:16:34;100763.47;;;8.27;69.48
19114;BME280;9689;51.052;13.772;2024-02-21T02:21:39;100766.97;;;8.17;70.11
19114;BME280;9689;51.052;13.772;2024-02-21T02:26:44;100764.34;;;8.28;69.77
19114;BME280;9689;51.052;13.772;2024-02-21T02:31:45;100755.69;;;8.29;70.04
19114;BME280;9689;51.052;13.772;2024-02-21T02:36:45;100759.13;;;8.29;69.65
19114;BME280;9689;51.052;13.772;2024-02-21T02:41:49;100755.69;;;8.27;69.83
19114;BME280;9689;51.052;13.772;2024-02-21T02:46:50;100752.22;;;8.28;69.55
19114;BME280;9689;51.052;13.772;2024-02-21T02:51:51;100741.84;;;8.27;69.96
19114;BME280;9689;51.052;13.772;2024-02-21T02:56:53;100730.63;;;8.18;70.28
19114;BME280;9689;51.052;13.772;2024-02-21T03:01:53;100733.16;;;8.25;70.46
19114;BME280;9689;51.052;13.772;2024-02-21T03:06:54;100726.28;;;8.20;70.39
19114;BME280;9689;51.052;13.772;2024-02-21T03:11:56;100728.00;;;8.23;69.84
19114;BME280;9689;51.052;13.772;2024-02-21T03:17:03;100723.72;;;8.08;70.91
19114;BME280;9689;51.052;13.772;2024-02-21T03:22:04;100722.88;;;8.09;70.45
19114;BME280;9689;51.052;13.772;2024-02-21T03:27:06;100715.94;;;8.08;70.51
19114;BME280;9689;51.052;13.772;2024-02-21T03:32:07;100720.25;;;8.11;70.23
19114;BME280;9689;51.052;13.772;2024-02-21T03:37:09;100734.03;;;8.25;69.58
19114;BME280;9689;51.052;13.772;2024-02-21T03:42:11;100719.31;;;8.38;68.95
19114;BME280;9689;51.052;13.772;2024-02-21T03:47:11;100719.31;;;8.30;69.66
19114;BME280;9689;51.052;13.772;2024-02-21T03:52:12;100715.03;;;8.15;70.70
19114;BME280;9689;51.052;13.772;2024-02-21T03:57:14;100718.44;;;8.31;69.15
19114;BME280;9689;51.052;13.772;2024-02-21T04:02:16;100694.25;;;8.23;69.84
19114;BME280;9689;51.052;13.772;2024-02-21T04:07:17;100698.56;;;8.26;69.57
19114;BME280;9689;51.052;13.772;2024-02-21T04:12:29;100696.78;;;8.34;68.45
19114;BME280;9689;51.052;13.772;2024-02-21T04:17:30;100693.38;;;8.27;69.67
19114;BME280;9689;51.052;13.772;2024-02-21T04:22:31;100702.84;;;8.31;69.57
19114;BME280;9689;51.052;13.772;2024-02-21T04:27:34;100699.41;;;8.31;69.11
19114;BME280;9689;51.052;13.772;2024-02-21T04:32:35;100695.97;;;8.24;69.05
19114;BME280;9689;51.052;13.772;2024-02-21T04:37:35;100696.84;;;8.23;69.15
19114;BME280;9689;51.052;13.772;2024-02-21T04:42:37;100692.50;;;8.22;69.10
19114;BME280;9689;51.052;13.772;2024-02-21T04:47:38;100687.31;;;8.23;68.93
19114;BME280;9689;51.052;13.772;2024-02-21T04:52:39;100692.53;;;8.14;69.70
19114;BME280;9689;51.052;13.772;2024-02-21T04:57:41;100686.44;;;8.23;68.86
19114;BME280;9689;51.052;13.772;2024-02-21T05:02:42;100682.19;;;8.11;69.78
19114;BME280;9689;51.052;13.772;2024-02-21T05:07:42;100676.13;;;8.08;69.99
19114;BME280;9689;51.052;13.772;2024-02-21T05:12:44;100670.03;;;8.19;70.17
19114;BME280;9689;51.052;13.772;2024-02-21T05:17:45;100667.41;;;8.26;69.42
19114;BME280;9689;51.052;13.772;2024-02-21T05:22:46;100667.19;;;8.68;74.01
19114;BME280;9689;51.052;13.772;2024-02-21T05:27:50;100668.97;;;8.62;71.33
19114;BME280;9689;51.052;13.772;2024-02-21T05:32:52;100661.28;;;8.42;70.90
19114;BME280;9689;51.052;13.772;2024-02-21T05:37:53;100653.59;;;8.14;71.45
19114;BME280;9689;51.052;13.772;2024-02-21T05:42:55;100651.91;;;8.10;71.89
19114;BME280;9689;51.052;13.772;2024-02-21T05:47:57;100643.22;;;8.13;71.90
19114;BME280;9689;51.052;13.772;2024-02-21T05:52:58;100656.22;;;8.11;71.52
19114;BME280;9689;51.052;13.772;2024-02-21T05:58:00;100638.03;;;8.17;71.90
19114;BME280;9689;51.052;13.772;2024-02-21T06:03:01;100631.06;;;8.22;71.41
19114;BME280;9689;51.052;13.772;2024-02-21T06:08:03;100625.03;;;8.16;71.89
19114;BME280;9689;51.052;13.772;2024-02-21T06:13:05;100615.56;;;8.06;73.21
19114;BME280;9689;51.052;13.772;2024-02-21T06:18:06;100617.34;;;8.01;73.67
19114;BME280;9689;51.052;13.772;2024-02-21T06:23:07;100608.69;;;8.03;73.92
19114;BME280;9689;51.052;13.772;2024-02-21T06:28:09;100598.31;;;7.99;74.00
19114;BME280;9689;51.052;13.772;2024-02-21T06:33:10;100597.41;;;8.07;73.41
19114;BME280;9689;51.052;13.772;2024-02-21T06:38:10;100598.22;;;8.17;73.81
19114;BME280;9689;51.052;13.772;2024-02-21T06:43:13;100597.38;;;8.18;74.08
19114;BME280;9689;51.052;13.772;2024-02-21T06:48:13;100594.72;;;8.22;74.10
19114;BME280;9689;51.052;13.772;2024-02-21T06:53:14;100600.75;;;8.29;73.43
19114;BME280;9689;51.052;13.772;2024-02-21T06:58:16;100592.09;;;8.35;73.47
19114;BME280;9689;51.052;13.772;2024-02-21T07:03:17;100605.84;;;8.47;73.71
19114;BME280;9689;51.052;13.772;2024-02-21T07:08:19;100602.47;;;8.36;73.03
19114;BME280;9689;51.052;13.772;2024-02-21T07:13:22;100605.84;;;8.52;72.47
19114;BME280;9689;51.052;13.772;2024-02-21T07:18:23;100603.22;;;8.50;72.91
19114;BME280;9689;51.052;13.772;2024-02-21T07:23:25;100609.22;;;8.63;73.28
19114;BME280;9689;51.052;13.772;2024-02-21T07:28:27;100610.19;;;8.52;73.05
19114;BME280;9689;51.052;13.772;2024-02-21T07:33:27;100616.22;;;8.52;73.26
19114;BME280;9689;51.052;13.772;2024-02-21T07:38:30;100608.44;;;8.52;72.73
19114;BME280;9689;51.052;13.772;2024-02-21T07:43:32;100610.78;;;8.87;71.32
19114;BME280;9689;51.052;13.772;2024-02-21T07:48:33;100600.34;;;8.90;71.08
19114;BME280;9689;51.052;13.772;2024-02-21T07:53:34;100594.16;;;9.02;70.73
19114;BME280;9689;51.052;13.772;2024-02-21T07:58:36;100598.47;;;9.03;70.66
19114;BME280;9689;51.052;13.772;2024-02-21T08:03:37;100590.69;;;9.03;70.27
19114;BME280;9689;51.052;13.772;2024-02-21T08:08:38;100603.63;;;9.12;69.80
19114;BME280;9689;51.052;13.772;2024-02-21T08:13:40;100583.69;;;9.13;68.81
19114;BME280;9689;51.052;13.772;2024-02-21T08:18:40;100581.78;;;9.28;68.13
19114;BME280;9689;51.052;13.772;2024-02-21T08:23:43;100595.97;;;9.78;66.80
19114;BME280;9689;51.052;13.772;2024-02-21T08:28:45;100599.78;;;9.47;67.11
19114;BME280;9689;51.052;13.772;2024-02-21T08:33:46;100594.69;;;9.39;67.94
19114;BME280;9689;51.052;13.772;2024-02-21T08:38:47;100578.13;;;9.48;68.31
19114;BME280;9689;51.052;13.772;2024-02-21T08:43:49;100575.50;;;9.49;67.23
19114;BME280;9689;51.052;13.772;2024-02-21T08:48:51;100574.66;;;9.46;67.53
19114;BME280;9689;51.052;13.772;2024-02-21T08:53:52;100585.34;;;9.18;68.73
19114;BME280;9689;51.052;13.772;2024-02-21T08:58:55;100571.38;;;9.28;68.82
19114;BME280;9689;51.052;13.772;2024-02-21T09:03:57;100554.16;;;9.18;68.65
19114;BME280;9689;51.052;13.772;2024-02-21T09:08:59;100565.22;;;9.39;68.34
19114;BME280;9689;51.052;13.772;2024-02-21T09:14:01;100572.13;;;9.38;67.89
19114;BME280;9689;51.052;13.772;2024-02-21T09:19:03;100573.91;;;9.34;67.92
19114;BME280;9689;51.052;13.772;2024-02-21T09:24:05;100567.81;;;9.37;68.14
19114;BME280;9689;51.052;13.772;2024-02-21T09:29:07;100576.53;;;9.34;67.68
19114;BME280;9689;51.052;13.772;2024-02-21T09:34:08;100576.50;;;9.36;67.85
19114;BME280;9689;51.052;13.772;2024-02-21T09:39:11;100579.22;;;9.25;68.43
19114;BME280;9689;51.052;13.772;2024-02-21T09:44:15;100585.19;;;9.33;68.47
19114;BME280;9689;51.052;13.772;2024-02-21T09:49:23;100593.13;;;9.23;68.44
19114;BME280;9689;51.052;13.772;2024-02-21T09:54:28;100586.09;;;9.29;68.06
19114;BME280;9689;51.052;13.772;2024-02-21T09:59:32;100592.16;;;9.33;67.83
19114;BME280;9689;51.052;13.772;2024-02-21T10:04:33;100572.22;;;9.29;68.38
19114;BME280;9689;51.052;13.772;2024-02-21T10:09:34;100576.59;;;9.27;68.80
19114;BME280;9689;51.052;13.772;2024-02-21T10:14:36;100571.25;;;9.42;67.83
19114;BME280;9689;51.052;13.772;2024-02-21T10:19:37;100569.50;;;9.43;68.73
19114;BME280;9689;51.052;13.772;2024-02-21T10:24:40;100568.53;;;9.51;68.47
19114;BME280;9689;51.052;13.772;2024-02-21T10:29:49;100570.22;;;9.54;67.79
19114;BME280;9689;51.052;13.772;2024-02-21T10:34:50;100563.25;;;9.57;67.47
19114;BME280;9689;51.052;13.772;2024-02-21T10:40:00;100568.50;;;9.53;67.74
19114;BME280;9689;51.052;13.772;2024-02-21T10:45:07;100561.56;;;9.53;67.84
19114;BME280;9689;51.052;13.772;2024-02-21T10:50:12;100541.53;;;9.61;66.22
19114;BME280;9689;51.052;13.772;2024-02-21T10:55:20;100534.66;;;9.56;66.54
19114;BME280;9689;51.052;13.772;2024-02-21T11:00:25;100543.41;;;9.49;67.05
19114;BME280;9689;51.052;13.772;2024-02-21T11:05:29;100535.63;;;9.49;66.68
19114;BME280;9689;51.052;13.772;2024-02-21T11:10:31;100520.03;;;9.44;66.59
19114;BME280;9689;51.052;13.772;2024-02-21T11:15:33;100521.84;;;9.41;67.14
19114;BME280;9689;51.052;13.772;2024-02-21T11:20:35;100519.16;;;9.48;66.50
19114;BME280;9689;51.052;13.772;2024-02-21T11:25:36;100512.94;;;9.60;67.45
19114;BME280;9689;51.052;13.772;2024-02-21T11:30:39;100497.41;;;9.52;67.91
19114;BME280;9689;51.052;13.772;2024-02-21T11:35:40;100479.81;;;9.71;66.16
19114;BME280;9689;51.052;13.772;2024-02-21T11:40:41;100474.22;;;9.97;65.48
19114;BME280;9689;51.052;13.772;2024-02-21T11:45:43;100465.28;;;10.15;65.89
19114;BME280;9689;51.052;13.772;2024-02-21T11:50:52;100464.63;;;10.02;65.55
19114;BME280;9689;51.052;13.772;2024-02-21T11:55:54;100438.69;;;9.95;65.78
19114;BME280;9689;51.052;13.772;2024-02-21T12:00:57;100444.63;;;10.04;65.57
19114;BME280;9689;51.052;13.772;2024-02-21T12:05:59;100425.31;;;10.19;66.14
19114;BME280;9689;51.052;13.772;2024-02-21T12:11:00;100427.88;;;10.20;66.68
19114;BME280;9689;51.052;13.772;2024-02-21T12:16:03;100398.19;;;10.34;66.03
19114;BME280;9689;51.052;13.772;2024-02-21T12:21:04;100383.31;;;10.39;65.86
19114;BME280;9689;51.052;13.772;2024-02-21T12:26:05;100387.19;;;10.64;63.31
19114;BME280;9689;51.052;13.772;2024-02-21T12:31:09;100363.81;;;11.03;63.22
19114;BME280;9689;51.052;13.772;2024-02-21T12:36:09;100350.41;;;11.58;60.67
19114;BME280;9689;51.052;13.772;2024-02-21T12:41:10;100337.84;;;11.37;61.26
19114;BME280;9689;51.052;13.772;2024-02-21T12:46:12;100324.72;;;11.01;62.39
19114;BME280;9689;51.052;13.772;2024-02-21T12:51:13;100314.44;;;10.95;62.94
19114;BME280;9689;51.052;13.772;2024-02-21T12:56:15;100313.88;;;11.21;61.77
19114;BME280;9689;51.052;13.772;2024-02-21T13:01:17;100295.75;;;11.15;61.40
19114;BME280;9689;51.052;13.772;2024-02-21T13:06:18;100281.72;;;11.21;62.23
19114;BME280;9689;51.052;13.772;2024-02-21T13:11:19;100277.06;;;11.33;61.14
19114;BME280;9689;51.052;13.772;2024-02-21T13:16:21;100277.03;;;11.35;60.72
19114;BME280;9689;51.052;13.772;2024-02-21T13:21:22;100255.41;;;11.30;60.59
19114;BME280;9689;51.052;13.772;2024-02-21T13:26:23;100255.34;;;11.33;60.91
19114;BME280;9689;51.052;13.772;2024-02-21T13:31:25;100245.66;;;11.38;61.31
19114;BME280;9689;51.052;13.772;2024-02-21T13:36:26;100235.94;;;11.43;61.35
19114;BME280;9689;51.052;13.772;2024-02-21T13:41:27;100235.13;;;11.41;61.13
19114;BME280;9689;51.052;13.772;2024-02-21T13:46:30;100210.81;;;11.41;61.11
19114;BME280;9689;51.052;13.772;2024-02-21T13:51:32;100205.16;;;11.57;61.08
19114;BME280;9689;51.052;13.772;2024-02-21T13:56:32;100186.44;;;11.74;60.58
19114;BME280;9689;51.052;13.772;2024-02-21T14:01:35;100167.16;;;11.80;60.71
19114;BME280;9689;51.052;13.772;2024-02-21T14:06:37;100160.19;;;11.80;59.74
19114;BME280;9689;51.052;13.772;2024-02-21T14:11:42;100158.91;;;11.95;59.58
19114;BME280;9689;51.052;13.772;2024-02-21T14:16:46;100155.09;;;12.07;59.19
19114;BME280;9689;51.052;13.772;2024-02-21T14:21:47;100141.81;;;12.14;58.79
19114;BME280;9689;51.052;13.772;2024-02-21T14:26:48;100135.56;;;12.20;58.56
19114;BME280;9689;51.052;13.772;2024-02-21T14:31:50;100127.63;;;12.23;59.03
19114;BME280;9689;51.052;13.772;2024-02-21T14:36:51;100135.16;;;12.34;58.75
19114;BME280;9689;51.052;13.772;2024-02-21T14:41:53;100127.91;;;12.43;57.93
19114;BME280;9689;51.052;13.772;2024-02-21T14:46:55;100126.94;;;12.46;58.87
19114;BME280;9689;51.052;13.772;2024-02-21T14:51:56;100121.94;;;12.38;59.24
19114;BME280;9689;51.052;13.772;2024-02-21T14:56:57;100112.16;;;12.17;59.60
19114;BME280;9689;51.052;13.772;2024-02-21T15:01:59;100105.50;;;12.05;60.14
19114;BME280;9689;51.052;13.772;2024-02-21T15:07:00;100111.91;;;11.95;60.33
19114;BME280;9689;51.052;13.772;2024-02-21T15:12:01;100107.22;;;11.75;61.26
19114;BME280;9689;51.052;13.772;2024-02-21T15:17:04;100102.06;;;11.74;61.06
19114;BME280;9689;51.052;13.772;2024-02-21T15:22:05;100085.09;;;11.57;61.92
19114;BME280;9689;51.052;13.772;2024-02-21T15:27:06;100091.59;;;11.43;62.48
19114;BME280;9689;51.052;13.772;2024-02-21T15:32:09;100084.94;;;11.31;62.32
19114;BME280;9689;51.052;13.772;2024-02-21T15:37:10;100077.53;;;11.16;63.01
19114;BME280;9689;51.052;13.772;2024-02-21T15:42:11;100069.28;;;10.98;63.24
19114;BME280;9689;51.052;13.772;2024-02-21T15:47:13;100053.06;;;10.86;63.22
19114;BME280;9689;51.052;13.772;2024-02-21T15:52:15;100042.03;;;10.76;64.38
19114;BME280;9689;51.052;13.772;2024-02-21T15:57:16;100027.81;;;10.54;65.94
19114;BME280;9689;51.052;13.772;2024-02-21T16:02:18;100017.09;;;10.30;66.19
19114;BME280;9689;51.052;13.772;2024-02-21T16:07:19;100011.34;;;10.14;66.75
19114;BME280;9689;51.052;13.772;2024-02-21T16:12:19;99996.91;;;10.01;67.87
19114;BME280;9689;51.052;13.772;2024-02-21T16:17:24;99978.09;;;9.88;68.04
19114;BME280;9689;51.052;13.772;2024-02-21T16:22:25;99975.72;;;9.78;68.98
19114;BME280;9689;51.052;13.772;2024-02-21T16:27:26;99971.75;;;9.61;69.77
19114;BME280;9689;51.052;13.772;2024-02-21T16:32:28;99962.50;;;9.47;70.21
19114;BME280;9689;51.052;13.772;2024-02-21T16:37:29;99960.06;;;9.41;70.76
19114;BME280;9689;51.052;13.772;2024-02-21T16:42:31;99955.81;;;9.35;70.97
19114;BME280;9689;51.052;13.772;2024-02-21T16:47:33;99964.75;;;9.23;71.97
19114;BME280;9689;51.052;13.772;2024-02-21T16:52:34;99959.19;;;9.40;76.59
19114;BME280;9689;51.052;13.772;2024-02-21T16:57:35;99952.09;;;9.48;75.30
19114;BME280;9689;51.052;13.772;2024-02-21T17:02:39;99947.81;;;9.04;74.09
19114;BME280;9689;51.052;13.772;2024-02-21T17:07:53;99940.91;;;9.01;75.11
19114;BME280;9689;51.052;13.772;2024-02-21T17:12:55;99930.84;;;9.28;77.77
19114;BME280;9689;51.052;13.772;2024-02-21T17:17:57;99927.03;;;9.44;79.21
19114;BME280;9689;51.052;13.772;2024-02-21T17:22:58;99912.66;;;9.26;78.64
19114;BME280;9689;51.052;13.772;2024-02-21T17:27:59;99909.00;;;8.93;75.26
19114;BME280;9689;51.052;13.772;2024-02-21T17:33:01;99916.41;;;8.68;75.57
19114;BME280;9689;51.052;13.772;2024-02-21T17:38:03;99910.72;;;8.48;76.80
19114;BME280;9689;51.052;13.772;2024-02-21T17:43:06;99911.78;;;8.38;76.94
19114;BME280;9689;51.052;13.772;2024-02-21T17:48:08;99897.13;;;8.35;77.79
19114;BME280;9689;51.052;13.772;2024-02-21T17:53:09;99895.50;;;8.25;77.89
19114;BME280;9689;51.052;13.772;2024-02-21T17:58:11;99895.03;;;8.03;79.14
19114;BME280;9689;51.052;13.772;2024-02-21T18:03:13;99895.16;;;7.96;79.78
19114;BME280;9689;51.052;13.772;2024-02-21T18:08:14;99876.41;;;7.77;80.32
19114;BME280;9689;51.052;13.772;2024-02-21T18:13:16;99873.00;;;7.75;80.84
19114;BME280;9689;51.052;13.772;2024-02-21T18:18:18;99870.44;;;7.72;81.52
19114;BME280;9689;51.052;13.772;2024-02-21T18:23:18;99865.25;;;7.72;81.21
19114;BME280;9689;51.052;13.772;2024-02-21T18:28:19;99853.84;;;7.83;80.95
19114;BME280;9689;51.052;13.772;2024-02-21T18:33:26;99843.34;;;7.91;80.85
19114;BME280;9689;51.052;13.772;2024-02-21T18:38:29;99837.19;;;7.97;80.34
19114;BME280;9689;51.052;13.772;2024-02-21T18:43:30;99829.50;;;7.92;80.56
19114;BME280;9689;51.052;13.772;2024-02-21T18:48:32;99825.84;;;8.02;80.36
19114;BME280;9689;51.052;13.772;2024-02-21T18:53:33;99822.53;;;7.94;80.44
19114;BME280;9689;51.052;13.772;2024-02-21T18:58:34;99819.13;;;7.92;80.82
19114;BME280;9689;51.052;13.772;2024-02-21T19:03:36;99806.84;;;8.02;80.35
19114;BME280;9689;51.052;13.772;2024-02-21T19:08:37;99794.81;;;7.96;79.65
19114;BME280;9689;51.052;13.772;2024-02-21T19:13:38;99787.03;;;7.96;79.25
19114;BME280;9689;51.052;13.772;2024-02-21T19:18:40;99781.00;;;7.94;78.04
19114;BME280;9689;51.052;13.772;2024-02-21T19:23:42;99770.69;;;7.91;77.39
19114;BME280;9689;51.052;13.772;2024-02-21T19:28:43;99749.94;;;7.91;76.64
19114;BME280;9689;51.052;13.772;2024-02-21T19:33:46;99743.75;;;7.98;75.22
19114;BME280;9689;51.052;13.772;2024-02-21T19:38:47;99724.66;;;8.02;74.45
19114;BME280;9689;51.052;13.772;2024-02-21T19:43:48;99720.28;;;8.04;74.08
19114;BME280;9689;51.052;13.772;2024-02-21T19:48:50;99703.91;;;8.02;73.45
19114;BME280;9689;51.052;13.772;2024-02-21T19:53:51;99690.03;;;8.03;72.45
19114;BME280;9689;51.052;13.772;2024-02-21T19:59:12;99676.16;;;8.04;72.00
19114;BME280;9689;51.052;13.772;2024-02-21T20:04:14;99671.78;;;8.06;71.50
19114;BME280;9689;51.052;13.772;2024-02-21T20:09:16;99663.69;;;8.23;69.91
19114;BME280;9689;51.052;13.772;2024-02-21T20:14:17;99655.00;;;8.26;69.55
19114;BME280;9689;51.052;13.772;2024-02-21T20:19:23;99650.63;;;8.28;68.79
19114;BME280;9689;51.052;13.772;2024-02-21T20:24:24;99637.53;;;8.32;69.04
19114;BME280;9689;51.052;13.772;2024-02-21T20:29:38;99645.22;;;8.38;67.48
19114;BME280;9689;51.052;13.772;2024-02-21T20:34:41;99642.34;;;8.50;66.04
19114;BME280;9689;51.052;13.772;2024-02-21T20:39:43;99641.44;;;8.53;66.01
19114;BME280;9689;51.052;13.772;2024-02-21T20:44:43;99626.06;;;8.42;66.83
19114;BME280;9689;51.052;13.772;2024-02-21T20:49:46;99627.94;;;8.37;67.97
19114;BME280;9689;51.052;13.772;2024-02-21T20:54:48;99621.81;;;8.40;67.74
19114;BME280;9689;51.052;13.772;2024-02-21T20:59:50;99608.06;;;8.33;69.06
19114;BME280;9689;51.052;13.772;2024-02-21T21:04:52;99612.50;;;8.30;69.41
19114;BME280;9689;51.052;13.772;2024-02-21T21:09:53;99616.84;;;8.29;69.58
19114;BME280;9689;51.052;13.772;2024-02-21T21:14:54;99605.13;;;8.10;70.05
19114;BME280;9689;51.052;13.772;2024-02-21T21:19:56;99597.16;;;8.19;70.76
19114;BME280;9689;51.052;13.772;2024-02-21T21:24:57;99585.03;;;8.19;70.46
19114;BME280;9689;51.052;13.772;2024-02-21T21:29:59;99577.13;;;8.24;69.92
19114;BME280;9689;51.052;13.772;2024-02-21T21:35:03;99566.63;;;8.30;68.82
19114;BME280;9689;51.052;13.772;2024-02-21T21:40:05;99577.72;;;8.38;67.21
19114;BME280;9689;51.052;13.772;2024-02-21T21:45:09;99546.47;;;8.41;66.93
19114;BME280;9689;51.052;13.772;2024-02-21T21:50:11;99554.28;;;8.41;67.21
19114;BME280;9689;51.052;13.772;2024-02-21T21:55:12;99555.13;;;8.43;66.89
19114;BME280;9689;51.052;13.772;2024-02-21T22:00:14;99560.13;;;8.49;65.90
19114;BME280;9689;51.052;13.772;2024-02-21T22:05:17;99544.59;;;8.48;66.66
19114;BME280;9689;51.052;13.772;2024-02-21T22:10:18;99531.47;;;8.54;66.77
19114;BME280;9689;51.052;13.772;2024-02-21T22:15:19;99531.41;;;8.57;65.75
19114;BME280;9689;51.052;13.772;2024-02-21T22:20:21;99525.13;;;8.66;64.98
19114;BME280;9689;51.052;13.772;2024-02-21T22:25:24;99526.59;;;8.77;65.35
19114;BME280;9689;51.052;13.772;2024-02-21T22:30:25;99520.50;;;8.78;64.69
19114;BME280;9689;51.052;13.772;2024-02-21T22:35:27;99519.66;;;8.76;64.51
19114;BME280;9689;51.052;13.772;2024-02-21T22:40:28;99506.81;;;8.72;65.07
19114;BME280;9689;51.052;13.772;2024-02-21T22:45:30;99504.66;;;8.88;63.98
19114;BME280;9689;51.052;13.772;2024-02-21T22:50:33;99497.13;;;8.78;63.77
19114;BME280;9689;51.052;13.772;2024-02-21T22:55:34;99482.34;;;8.81;63.67
19114;BME280;9689;51.052;13.772;2024-02-21T23:00:35;99492.81;;;8.77;64.26
19114;BME280;9689;51.052;13.772;2024-02-21T23:05:37;99475.38;;;8.81;63.71
19114;BME280;9689;51.052;13.772;2024-02-21T23:10:38;99472.50;;;8.92;62.44
19114;BME280;9689;51.052;13.772;2024-02-21T23:15:39;99468.41;;;8.83;63.55
19114;BME280;9689;51.052;13.772;2024-02-21T23:20:41;99455.38;;;8.85;63.32
19114;BME280;9689;51.052;13.772;2024-02-21T23:25:43;99447.63;;;8.83;63.16
19114;BME280;9689;51.052;13.772;2024-02-21T23:30:44;99437.06;;;8.89;62.59
19114;BME280;9689;51.052;13.772;2024-02-21T23:35:46;99430.94;;;8.92;61.34
19114;BME280;9689;51.052;13.772;2024-02-21T23:40:46;99428.28;;;8.95;60.77
19114;BME280;9689;51.052;13.772;2024-02-21T23:45:47;99416.56;;;9.10;59.22
19114;BME280;9689;51.052;13.772;2024-02-21T23:50:49;99395.56;;;9.17;56.34
19114;BME280;9689;51.052;13.772;2024-02-21T23:55:50;99387.53;;;9.25;57.32
